ブエノスアイレス/エセイサ の空港の天気 - METARとTAF

エセイサ国際空港 ( SAEZ / EZE ) - アルゼンチン ブエノスアイレス州、Ezeiza
飛行場実況気象(Metar)
観測時間10/18 00:00 ART (10/18 03:00 UTC)
風向・風速東南東 3m/s
視程10km以上
天気現象
なし
気温18℃
湿度83%
気圧1011hPa
METARSAEZ 180300Z 11005KT CAVOK 18/15 Q1011 NOSIG
過去の天気等 Google飛行場航空写真 Wunderground天気予報

過去48時間のMETAR

飛行場予報(TAF)
発表時間: 10/17 20:00 ART (10/17 23:00 UTC)
予報対象時間: 17日21時 ART ~ 18日21時 ART
風向・風速東南東 5m/s
視程10km以上
なし
18日8時 ART ~ 18日11時 ART に徐々に
風向・風速東南東 8m/s 瞬間風速 13m/s
少しの雲 雲底高度 610m
全天の8割程度の雲 雲底高度 910m
全天の8割程度の雲 雲底高度 3050m
TAF SAEZ 172300Z 1800/1824 11010KT CAVOK TX24/1818Z TN14/1809Z
BECMG 1811/1814 11015G25KT FEW020 BKN030 BKN100